sensor_id;sensor_type;location;lat;lon;timestamp;pressure;altitude;pressure_sealevel;temperature;humidity
59063;BME280;44851;45.648;9.004;2022-08-01T00:00:38;98885.63;;;24.94;41.25
59063;BME280;44851;45.648;9.004;2022-08-01T00:03:03;98884.66;;;25.00;41.36
59063;BME280;44851;45.648;9.004;2022-08-01T00:05:29;98882.94;;;24.94;42.02
59063;BME280;44851;45.648;9.004;2022-08-01T00:07:54;98880.63;;;24.85;42.16
59063;BME280;44851;45.648;9.004;2022-08-01T00:10:20;98875.66;;;24.89;41.90
59063;BME280;44851;45.648;9.004;2022-08-01T00:12:45;98872.44;;;24.75;41.26
59063;BME280;44851;45.648;9.004;2022-08-01T00:15:13;98878.59;;;24.64;40.87
59063;BME280;44851;45.648;9.004;2022-08-01T00:17:39;98872.53;;;24.80;41.38
59063;BME280;44851;45.648;9.004;2022-08-01T00:20:07;98874.34;;;24.91;41.16
59063;BME280;44851;45.648;9.004;2022-08-01T00:22:34;98877.63;;;24.94;41.24
59063;BME280;44851;45.648;9.004;2022-08-01T00:24:59;98871.44;;;24.93;41.70
59063;BME280;44851;45.648;9.004;2022-08-01T00:27:25;98878.34;;;24.77;42.77
59063;BME280;44851;45.648;9.004;2022-08-01T00:29:50;98875.09;;;24.75;43.37
59063;BME280;44851;45.648;9.004;2022-08-01T00:32:16;98881.94;;;24.59;43.49
59063;BME280;44851;45.648;9.004;2022-08-01T00:34:41;98886.22;;;24.60;43.25
59063;BME280;44851;45.648;9.004;2022-08-01T00:37:06;98883.25;;;24.57;43.24
59063;BME280;44851;45.648;9.004;2022-08-01T00:39:32;98884.16;;;24.51;41.92
59063;BME280;44851;45.648;9.004;2022-08-01T00:42:09;98887.25;;;24.48;41.43
59063;BME280;44851;45.648;9.004;2022-08-01T00:44:35;98888.75;;;24.44;41.82
59063;BME280;44851;45.648;9.004;2022-08-01T00:47:02;98887.03;;;24.49;42.03
59063;BME280;44851;45.648;9.004;2022-08-01T00:49:27;98885.78;;;24.40;42.15
59063;BME280;44851;45.648;9.004;2022-08-01T00:51:54;98884.81;;;24.34;42.09
59063;BME280;44851;45.648;9.004;2022-08-01T00:54:19;98883.44;;;24.32;42.61
59063;BME280;44851;45.648;9.004;2022-08-01T00:56:45;98881.34;;;24.22;41.84
59063;BME280;44851;45.648;9.004;2022-08-01T00:59:11;98886.22;;;24.25;42.07
59063;BME280;44851;45.648;9.004;2022-08-01T01:01:37;98889.13;;;24.35;43.07
59063;BME280;44851;45.648;9.004;2022-08-01T01:04:02;98887.84;;;24.26;42.35
59063;BME280;44851;45.648;9.004;2022-08-01T01:09:17;98889.91;;;24.01;43.25
59063;BME280;44851;45.648;9.004;2022-08-01T01:12:13;98884.00;;;23.99;42.44
59063;BME280;44851;45.648;9.004;2022-08-01T01:17:29;98878.63;;;23.87;43.19
59063;BME280;44851;45.648;9.004;2022-08-01T01:19:59;98870.69;;;23.99;42.78
59063;BME280;44851;45.648;9.004;2022-08-01T01:30:28;98869.38;;;23.89;42.90
59063;BME280;44851;45.648;9.004;2022-08-01T01:32:59;98879.13;;;23.96;43.25
59063;BME280;44851;45.648;9.004;2022-08-01T01:35:29;98874.13;;;23.87;43.08
59063;BME280;44851;45.648;9.004;2022-08-01T01:38:22;98873.50;;;23.85;43.57
59063;BME280;44851;45.648;9.004;2022-08-01T01:40:52;98866.44;;;23.79;44.03
59063;BME280;44851;45.648;9.004;2022-08-01T01:43:18;98868.66;;;23.71;44.10
59063;BME280;44851;45.648;9.004;2022-08-01T01:45:46;98860.44;;;23.72;43.71
59063;BME280;44851;45.648;9.004;2022-08-01T01:48:17;98870.16;;;23.78;43.75
59063;BME280;44851;45.648;9.004;2022-08-01T01:50:45;98863.66;;;23.74;44.01
59063;BME280;44851;45.648;9.004;2022-08-01T01:53:13;98862.63;;;23.75;43.78
59063;BME280;44851;45.648;9.004;2022-08-01T01:55:41;98867.38;;;23.73;43.78
59063;BME280;44851;45.648;9.004;2022-08-01T01:58:12;98866.91;;;23.76;44.06
59063;BME280;44851;45.648;9.004;2022-08-01T02:00:38;98867.47;;;23.67;44.34
59063;BME280;44851;45.648;9.004;2022-08-01T02:03:05;98874.03;;;23.64;44.01
59063;BME280;44851;45.648;9.004;2022-08-01T02:05:32;98872.44;;;23.63;44.09
59063;BME280;44851;45.648;9.004;2022-08-01T02:08:01;98867.09;;;23.63;44.50
59063;BME280;44851;45.648;9.004;2022-08-01T02:10:28;98870.81;;;23.62;44.38
59063;BME280;44851;45.648;9.004;2022-08-01T02:12:55;98869.53;;;23.65;44.38
59063;BME280;44851;45.648;9.004;2022-08-01T02:15:23;98874.03;;;23.64;44.44
59063;BME280;44851;45.648;9.004;2022-08-01T02:17:49;98866.97;;;23.58;45.75
59063;BME280;44851;45.648;9.004;2022-08-01T02:20:16;98877.03;;;23.56;45.75
59063;BME280;44851;45.648;9.004;2022-08-01T02:22:53;98864.38;;;23.40;45.16
59063;BME280;44851;45.648;9.004;2022-08-01T02:25:28;98874.38;;;23.56;45.24
59063;BME280;44851;45.648;9.004;2022-08-01T02:28:29;98876.50;;;23.35;45.39
59063;BME280;44851;45.648;9.004;2022-08-01T02:31:06;98878.28;;;23.23;45.63
59063;BME280;44851;45.648;9.004;2022-08-01T02:33:37;98877.41;;;23.29;45.92
59063;BME280;44851;45.648;9.004;2022-08-01T02:36:04;98878.34;;;23.35;46.32
59063;BME280;44851;45.648;9.004;2022-08-01T02:38:33;98878.13;;;23.36;46.48
59063;BME280;44851;45.648;9.004;2022-08-01T02:41:05;98876.66;;;23.41;45.77
59063;BME280;44851;45.648;9.004;2022-08-01T02:43:34;98884.59;;;23.29;46.31
59063;BME280;44851;45.648;9.004;2022-08-01T02:46:03;98880.94;;;23.23;46.12
59063;BME280;44851;45.648;9.004;2022-08-01T02:48:32;98877.09;;;23.19;46.67
59063;BME280;44851;45.648;9.004;2022-08-01T02:51:00;98885.66;;;23.21;46.88
59063;BME280;44851;45.648;9.004;2022-08-01T02:53:27;98885.75;;;23.15;47.07
59063;BME280;44851;45.648;9.004;2022-08-01T02:55:55;98890.25;;;23.14;46.64
59063;BME280;44851;45.648;9.004;2022-08-01T02:58:21;98893.81;;;23.08;46.52
59063;BME280;44851;45.648;9.004;2022-08-01T03:00:49;98892.84;;;23.02;46.39
59063;BME280;44851;45.648;9.004;2022-08-01T03:03:17;98897.75;;;23.17;46.78
59063;BME280;44851;45.648;9.004;2022-08-01T03:05:43;98896.75;;;23.18;46.47
59063;BME280;44851;45.648;9.004;2022-08-01T03:08:10;98893.81;;;23.08;46.64
59063;BME280;44851;45.648;9.004;2022-08-01T03:10:38;98896.75;;;23.00;46.49
59063;BME280;44851;45.648;9.004;2022-08-01T03:13:06;98897.78;;;22.99;46.95
59063;BME280;44851;45.648;9.004;2022-08-01T03:15:35;98897.56;;;23.00;46.70
59063;BME280;44851;45.648;9.004;2022-08-01T03:18:04;98899.59;;;22.87;47.11
59063;BME280;44851;45.648;9.004;2022-08-01T03:20:32;98903.28;;;22.86;47.18
59063;BME280;44851;45.648;9.004;2022-08-01T03:23:00;98903.13;;;22.80;47.87
59063;BME280;44851;45.648;9.004;2022-08-01T03:25:29;98901.72;;;22.78;47.80
59063;BME280;44851;45.648;9.004;2022-08-01T03:27:58;98901.94;;;22.76;47.93
59063;BME280;44851;45.648;9.004;2022-08-01T03:30:26;98901.63;;;22.66;47.52
59063;BME280;44851;45.648;9.004;2022-08-01T03:32:52;98895.59;;;22.77;47.88
59063;BME280;44851;45.648;9.004;2022-08-01T03:35:17;98898.81;;;22.79;48.25
59063;BME280;44851;45.648;9.004;2022-08-01T03:37:45;98897.34;;;22.65;48.98
59063;BME280;44851;45.648;9.004;2022-08-01T03:40:24;98902.22;;;22.68;47.97
59063;BME280;44851;45.648;9.004;2022-08-01T03:42:56;98897.03;;;22.55;48.36
59063;BME280;44851;45.648;9.004;2022-08-01T03:45:26;98895.28;;;22.67;48.15
59063;BME280;44851;45.648;9.004;2022-08-01T03:48:00;98894.41;;;22.73;49.26
59063;BME280;44851;45.648;9.004;2022-08-01T03:50:27;98905.47;;;22.70;48.06
59063;BME280;44851;45.648;9.004;2022-08-01T03:52:56;98901.19;;;22.69;48.24
59063;BME280;44851;45.648;9.004;2022-08-01T03:55:23;98899.41;;;22.63;47.80
59063;BME280;44851;45.648;9.004;2022-08-01T03:57:50;98892.50;;;22.55;47.98
59063;BME280;44851;45.648;9.004;2022-08-01T04:00:15;98893.66;;;22.66;48.03
59063;BME280;44851;45.648;9.004;2022-08-01T04:02:45;98903.47;;;22.66;48.54
59063;BME280;44851;45.648;9.004;2022-08-01T04:05:11;98908.88;;;22.59;47.56
59063;BME280;44851;45.648;9.004;2022-08-01T04:07:36;98906.28;;;22.71;47.82
59063;BME280;44851;45.648;9.004;2022-08-01T04:10:02;98911.44;;;22.66;47.25
59063;BME280;44851;45.648;9.004;2022-08-01T04:12:28;98912.09;;;22.61;47.18
59063;BME280;44851;45.648;9.004;2022-08-01T04:14:53;98914.75;;;22.79;46.52
59063;BME280;44851;45.648;9.004;2022-08-01T04:17:19;98912.69;;;22.63;47.33
59063;BME280;44851;45.648;9.004;2022-08-01T04:19:44;98911.69;;;22.64;48.04
59063;BME280;44851;45.648;9.004;2022-08-01T04:22:11;98913.88;;;22.67;48.95
59063;BME280;44851;45.648;9.004;2022-08-01T04:24:39;98914.84;;;22.48;48.96
59063;BME280;44851;45.648;9.004;2022-08-01T04:27:09;98919.16;;;22.49;49.68
59063;BME280;44851;45.648;9.004;2022-08-01T04:29:36;98916.91;;;22.46;49.22
59063;BME280;44851;45.648;9.004;2022-08-01T04:32:05;98926.16;;;22.43;49.22
59063;BME280;44851;45.648;9.004;2022-08-01T04:34:33;98926.06;;;22.50;48.13
59063;BME280;44851;45.648;9.004;2022-08-01T04:37:00;98927.28;;;22.54;47.91
59063;BME280;44851;45.648;9.004;2022-08-01T04:39:27;98926.88;;;22.50;48.76
59063;BME280;44851;45.648;9.004;2022-08-01T04:41:54;98927.47;;;22.52;49.37
59063;BME280;44851;45.648;9.004;2022-08-01T04:44:24;98922.38;;;22.51;48.97
59063;BME280;44851;45.648;9.004;2022-08-01T04:46:50;98924.56;;;22.61;49.25
59063;BME280;44851;45.648;9.004;2022-08-01T04:49:20;98929.50;;;22.57;48.78
59063;BME280;44851;45.648;9.004;2022-08-01T04:51:50;98925.63;;;22.60;48.32
59063;BME280;44851;45.648;9.004;2022-08-01T04:54:16;98924.56;;;22.61;48.55
59063;BME280;44851;45.648;9.004;2022-08-01T04:56:41;98921.97;;;22.54;47.96
59063;BME280;44851;45.648;9.004;2022-08-01T04:59:07;98923.63;;;22.73;48.30
59063;BME280;44851;45.648;9.004;2022-08-01T05:01:51;98923.63;;;22.73;48.32
59063;BME280;44851;45.648;9.004;2022-08-01T05:04:16;98926.75;;;22.70;48.09
59063;BME280;44851;45.648;9.004;2022-08-01T05:06:41;98930.13;;;22.52;46.99
59063;BME280;44851;45.648;9.004;2022-08-01T05:09:07;98933.59;;;22.78;47.94
59063;BME280;44851;45.648;9.004;2022-08-01T05:11:32;98928.78;;;22.68;47.74
59063;BME280;44851;45.648;9.004;2022-08-01T05:13:57;98921.84;;;22.67;47.90
59063;BME280;44851;45.648;9.004;2022-08-01T05:16:23;98925.25;;;22.74;47.41
59063;BME280;44851;45.648;9.004;2022-08-01T05:18:48;98932.94;;;22.64;47.74
59063;BME280;44851;45.648;9.004;2022-08-01T05:21:13;98923.03;;;22.71;47.50
59063;BME280;44851;45.648;9.004;2022-08-01T05:23:39;98932.41;;;22.74;48.18
59063;BME280;44851;45.648;9.004;2022-08-01T05:26:04;98934.34;;;22.85;47.97
59063;BME280;44851;45.648;9.004;2022-08-01T05:28:30;98927.47;;;22.77;46.95
59063;BME280;44851;45.648;9.004;2022-08-01T05:30:55;98925.03;;;22.76;47.96
59063;BME280;44851;45.648;9.004;2022-08-01T05:33:21;98925.41;;;22.79;47.34
59063;BME280;44851;45.648;9.004;2022-08-01T05:35:47;98925.69;;;22.90;48.35
59063;BME280;44851;45.648;9.004;2022-08-01T05:38:12;98925.69;;;22.90;48.47
59063;BME280;44851;45.648;9.004;2022-08-01T05:40:37;98926.31;;;22.92;47.89
59063;BME280;44851;45.648;9.004;2022-08-01T05:43:03;98921.94;;;22.97;48.30
59063;BME280;44851;45.648;9.004;2022-08-01T05:45:28;98926.00;;;23.00;47.16
59063;BME280;44851;45.648;9.004;2022-08-01T05:47:53;98925.28;;;22.93;46.97
59063;BME280;44851;45.648;9.004;2022-08-01T05:50:19;98929.25;;;23.02;46.94
59063;BME280;44851;45.648;9.004;2022-08-01T05:52:44;98919.34;;;23.09;46.59
59063;BME280;44851;45.648;9.004;2022-08-01T05:55:09;98930.41;;;23.06;47.47
59063;BME280;44851;45.648;9.004;2022-08-01T05:57:35;98925.72;;;23.26;45.99
59063;BME280;44851;45.648;9.004;2022-08-01T06:00:00;98934.13;;;23.23;46.59
59063;BME280;44851;45.648;9.004;2022-08-01T06:02:25;98921.16;;;23.33;45.99
59063;BME280;44851;45.648;9.004;2022-08-01T06:04:51;98929.38;;;23.44;46.88
59063;BME280;44851;45.648;9.004;2022-08-01T06:07:16;98937.63;;;23.54;46.29
59063;BME280;44851;45.648;9.004;2022-08-01T06:09:41;98935.31;;;23.46;48.28
59063;BME280;44851;45.648;9.004;2022-08-01T06:12:07;98933.97;;;23.55;48.20
59063;BME280;44851;45.648;9.004;2022-08-01T06:14:33;98935.41;;;23.81;45.58
59063;BME280;44851;45.648;9.004;2022-08-01T06:16:58;98940.34;;;23.96;45.66
59063;BME280;44851;45.648;9.004;2022-08-01T06:19:23;98931.25;;;24.03;44.84
59063;BME280;44851;45.648;9.004;2022-08-01T06:21:49;98941.31;;;24.13;45.40
59063;BME280;44851;45.648;9.004;2022-08-01T06:24:14;98940.06;;;24.27;45.09
59063;BME280;44851;45.648;9.004;2022-08-01T06:26:40;98940.00;;;24.46;44.32
59063;BME280;44851;45.648;9.004;2022-08-01T06:29:05;98941.06;;;24.68;44.26
59063;BME280;44851;45.648;9.004;2022-08-01T06:31:30;98944.84;;;24.96;42.70
59063;BME280;44851;45.648;9.004;2022-08-01T06:33:56;98947.44;;;25.19;41.23
59063;BME280;44851;45.648;9.004;2022-08-01T06:36:22;98941.19;;;25.37;42.64
59063;BME280;44851;45.648;9.004;2022-08-01T06:38:47;98946.38;;;25.43;41.85
59063;BME280;44851;45.648;9.004;2022-08-01T06:41:13;98939.81;;;25.63;41.09
59063;BME280;44851;45.648;9.004;2022-08-01T06:43:38;98951.81;;;25.77;41.93
59063;BME280;44851;45.648;9.004;2022-08-01T06:46:04;98951.56;;;26.07;40.70
59063;BME280;44851;45.648;9.004;2022-08-01T06:48:29;98947.13;;;26.13;39.74
59063;BME280;44851;45.648;9.004;2022-08-01T06:50:54;98938.06;;;26.47;37.83
59063;BME280;44851;45.648;9.004;2022-08-01T06:53:33;98938.63;;;26.50;39.70
59063;BME280;44851;45.648;9.004;2022-08-01T06:55:59;98943.47;;;26.53;39.51
59063;BME280;44851;45.648;9.004;2022-08-01T06:58:24;98941.81;;;26.85;38.18
59063;BME280;44851;45.648;9.004;2022-08-01T07:00:51;98940.31;;;26.94;39.66
59063;BME280;44851;45.648;9.004;2022-08-01T07:03:16;98938.22;;;26.96;39.95
59063;BME280;44851;45.648;9.004;2022-08-01T07:05:41;98948.69;;;27.20;39.65
59063;BME280;44851;45.648;9.004;2022-08-01T07:08:07;98943.72;;;27.29;38.39
59063;BME280;44851;45.648;9.004;2022-08-01T07:10:32;98947.34;;;27.39;36.08
59063;BME280;44851;45.648;9.004;2022-08-01T07:12:57;98947.56;;;27.38;36.53
59063;BME280;44851;45.648;9.004;2022-08-01T07:15:23;98943.69;;;27.50;36.38
59063;BME280;44851;45.648;9.004;2022-08-01T07:17:51;98942.16;;;27.33;36.56
59063;BME280;44851;45.648;9.004;2022-08-01T07:20:17;98945.63;;;27.55;35.14
59063;BME280;44851;45.648;9.004;2022-08-01T07:22:42;98945.75;;;27.43;35.48
59063;BME280;44851;45.648;9.004;2022-08-01T07:25:08;98946.00;;;27.64;35.69
59063;BME280;44851;45.648;9.004;2022-08-01T07:27:35;98950.19;;;27.55;36.40
59063;BME280;44851;45.648;9.004;2022-08-01T07:30:01;98940.56;;;27.59;35.17
59063;BME280;44851;45.648;9.004;2022-08-01T07:32:26;98946.56;;;27.22;34.94
59063;BME280;44851;45.648;9.004;2022-08-01T07:34:54;98946.16;;;27.30;34.97
59063;BME280;44851;45.648;9.004;2022-08-01T07:37:19;98948.44;;;27.43;35.52
59063;BME280;44851;45.648;9.004;2022-08-01T07:39:45;98948.06;;;27.35;35.10
59063;BME280;44851;45.648;9.004;2022-08-01T07:42:10;98951.31;;;27.15;34.83
59063;BME280;44851;45.648;9.004;2022-08-01T07:44:36;98938.19;;;27.13;35.32
59063;BME280;44851;45.648;9.004;2022-08-01T07:47:01;98953.59;;;27.06;36.08
59063;BME280;44851;45.648;9.004;2022-08-01T07:49:27;98942.66;;;27.30;35.59
59063;BME280;44851;45.648;9.004;2022-08-01T07:51:52;98939.13;;;27.24;36.63
59063;BME280;44851;45.648;9.004;2022-08-01T07:54:19;98951.06;;;27.38;36.78
59063;BME280;44851;45.648;9.004;2022-08-01T07:56:44;98942.47;;;27.36;36.07
59063;BME280;44851;45.648;9.004;2022-08-01T07:59:10;98951.44;;;27.25;35.44
59063;BME280;44851;45.648;9.004;2022-08-01T08:01:35;98951.00;;;27.33;35.21
59063;BME280;44851;45.648;9.004;2022-08-01T08:04:00;98941.88;;;27.29;36.07
59063;BME280;44851;45.648;9.004;2022-08-01T08:06:26;98943.72;;;27.29;35.67
59063;BME280;44851;45.648;9.004;2022-08-01T08:08:51;98935.09;;;27.48;35.17
59063;BME280;44851;45.648;9.004;2022-08-01T08:11:18;98933.53;;;27.52;34.41
59063;BME280;44851;45.648;9.004;2022-08-01T08:13:44;98944.00;;;27.54;36.18
59063;BME280;44851;45.648;9.004;2022-08-01T08:16:09;98946.97;;;27.80;33.93
59063;BME280;44851;45.648;9.004;2022-08-01T08:18:34;98943.72;;;28.05;33.70
59063;BME280;44851;45.648;9.004;2022-08-01T08:21:00;98939.97;;;28.06;34.66
59063;BME280;44851;45.648;9.004;2022-08-01T08:23:25;98946.44;;;28.10;34.67
59063;BME280;44851;45.648;9.004;2022-08-01T08:26:16;98946.19;;;28.43;33.87
59063;BME280;44851;45.648;9.004;2022-08-01T08:28:42;98944.72;;;28.63;33.78
59063;BME280;44851;45.648;9.004;2022-08-01T08:31:08;98946.97;;;28.81;34.16
59063;BME280;44851;45.648;9.004;2022-08-01T08:33:33;98942.47;;;28.92;33.25
59063;BME280;44851;45.648;9.004;2022-08-01T08:35:58;98937.53;;;29.21;33.36
59063;BME280;44851;45.648;9.004;2022-08-01T08:38:24;98950.47;;;29.34;32.11
59063;BME280;44851;45.648;9.004;2022-08-01T08:40:52;98942.19;;;29.41;30.55
59063;BME280;44851;45.648;9.004;2022-08-01T08:43:18;98945.47;;;29.63;32.52
59063;BME280;44851;45.648;9.004;2022-08-01T08:45:44;98943.59;;;29.84;31.50
59063;BME280;44851;45.648;9.004;2022-08-01T08:48:11;98943.66;;;29.99;30.99
59063;BME280;44851;45.648;9.004;2022-08-01T08:50:37;98945.28;;;30.05;30.85
59063;BME280;44851;45.648;9.004;2022-08-01T08:53:03;98944.19;;;30.22;32.74
59063;BME280;44851;45.648;9.004;2022-08-01T08:55:29;98946.88;;;30.37;31.09
59063;BME280;44851;45.648;9.004;2022-08-01T08:57:55;98941.53;;;30.42;32.13
59063;BME280;44851;45.648;9.004;2022-08-01T09:00:21;98947.44;;;30.39;31.47
59063;BME280;44851;45.648;9.004;2022-08-01T09:02:47;98937.75;;;30.43;30.09
59063;BME280;44851;45.648;9.004;2022-08-01T09:05:14;98943.09;;;30.64;31.16
59063;BME280;44851;45.648;9.004;2022-08-01T09:07:40;98944.69;;;30.70;29.86
59063;BME280;44851;45.648;9.004;2022-08-01T09:10:05;98935.53;;;30.71;29.63
59063;BME280;44851;45.648;9.004;2022-08-01T09:12:32;98939.53;;;30.78;29.51
59063;BME280;44851;45.648;9.004;2022-08-01T09:14:57;98934.41;;;30.87;29.37
59063;BME280;44851;45.648;9.004;2022-08-01T09:17:23;98939.50;;;31.04;29.23
59063;BME280;44851;45.648;9.004;2022-08-01T09:19:54;98933.53;;;31.17;31.03
59063;BME280;44851;45.648;9.004;2022-08-01T09:22:22;98943.72;;;31.20;28.97
59063;BME280;44851;45.648;9.004;2022-08-01T09:25:09;98938.03;;;31.27;28.66
59063;BME280;44851;45.648;9.004;2022-08-01T09:27:37;98933.66;;;31.46;28.80
59063;BME280;44851;45.648;9.004;2022-08-01T09:30:16;98935.75;;;31.59;29.87
59063;BME280;44851;45.648;9.004;2022-08-01T09:32:59;98927.97;;;31.48;28.06
59063;BME280;44851;45.648;9.004;2022-08-01T09:35:30;98926.16;;;31.43;27.46
59063;BME280;44851;45.648;9.004;2022-08-01T09:38:18;98927.53;;;31.75;29.78
59063;BME280;44851;45.648;9.004;2022-08-01T09:40:52;98941.16;;;31.99;29.41
59063;BME280;44851;45.648;9.004;2022-08-01T09:43:20;98934.41;;;31.96;27.90
59063;BME280;44851;45.648;9.004;2022-08-01T09:45:46;98928.53;;;31.89;26.69
59063;BME280;44851;45.648;9.004;2022-08-01T09:48:11;98924.59;;;32.10;27.05
59063;BME280;44851;45.648;9.004;2022-08-01T09:50:46;98925.66;;;32.14;26.78
59063;BME280;44851;45.648;9.004;2022-08-01T09:53:13;98925.06;;;32.17;28.03
59063;BME280;44851;45.648;9.004;2022-08-01T09:55:40;98930.31;;;32.04;28.01
59063;BME280;44851;45.648;9.004;2022-08-01T09:58:06;98921.31;;;32.19;26.90
59063;BME280;44851;45.648;9.004;2022-08-01T10:00:33;98925.84;;;32.23;27.33
59063;BME280;44851;45.648;9.004;2022-08-01T10:03:18;98918.38;;;32.44;28.09
59063;BME280;44851;45.648;9.004;2022-08-01T10:05:43;98918.00;;;32.56;27.63
59063;BME280;44851;45.648;9.004;2022-08-01T10:08:09;98917.84;;;32.71;28.61
59063;BME280;44851;45.648;9.004;2022-08-01T10:10:35;98915.97;;;32.90;27.96
59063;BME280;44851;45.648;9.004;2022-08-01T10:13:01;98912.44;;;32.95;27.26
59063;BME280;44851;45.648;9.004;2022-08-01T10:15:27;98907.72;;;32.58;26.46
59063;BME280;44851;45.648;9.004;2022-08-01T10:17:57;98905.19;;;32.90;27.41
59063;BME280;44851;45.648;9.004;2022-08-01T10:20:29;98902.31;;;33.06;27.62
59063;BME280;44851;45.648;9.004;2022-08-01T10:22:57;98904.28;;;33.00;26.53
59063;BME280;44851;45.648;9.004;2022-08-01T10:25:23;98894.66;;;32.94;25.98
59063;BME280;44851;45.648;9.004;2022-08-01T10:27:53;98900.44;;;33.25;26.19
59063;BME280;44851;45.648;9.004;2022-08-01T10:30:23;98897.59;;;33.35;26.06
59063;BME280;44851;45.648;9.004;2022-08-01T10:32:50;98898.91;;;33.38;25.59
59063;BME280;44851;45.648;9.004;2022-08-01T10:35:17;98895.06;;;33.25;24.37
59063;BME280;44851;45.648;9.004;2022-08-01T10:37:45;98892.69;;;33.18;24.87
59063;BME280;44851;45.648;9.004;2022-08-01T10:40:14;98889.13;;;33.42;24.20
59063;BME280;44851;45.648;9.004;2022-08-01T10:42:42;98889.59;;;33.49;24.10
59063;BME280;44851;45.648;9.004;2022-08-01T10:45:09;98891.19;;;33.50;25.32
59063;BME280;44851;45.648;9.004;2022-08-01T10:47:42;98884.25;;;33.63;26.19
59063;BME280;44851;45.648;9.004;2022-08-01T10:50:31;98877.44;;;33.65;23.33
59063;BME280;44851;45.648;9.004;2022-08-01T10:53:13;98872.97;;;33.75;23.47
59063;BME280;44851;45.648;9.004;2022-08-01T10:56:10;98869.16;;;33.94;23.72
59063;BME280;44851;45.648;9.004;2022-08-01T10:58:38;98866.28;;;33.86;23.34
59063;BME280;44851;45.648;9.004;2022-08-01T11:03:41;98867.25;;;33.62;22.66
59063;BME280;44851;45.648;9.004;2022-08-01T11:06:16;98855.75;;;34.03;22.89
59063;BME280;44851;45.648;9.004;2022-08-01T11:08:42;98854.38;;;33.87;22.51
59063;BME280;44851;45.648;9.004;2022-08-01T11:11:15;98847.34;;;34.18;21.86
59063;BME280;44851;45.648;9.004;2022-08-01T11:16:33;98844.16;;;34.30;21.47
59063;BME280;44851;45.648;9.004;2022-08-01T11:18:59;98842.56;;;34.15;20.13
59063;BME280;44851;45.648;9.004;2022-08-01T11:27:30;98832.34;;;34.67;22.35
59063;BME280;44851;45.648;9.004;2022-08-01T11:32:34;98824.53;;;34.80;21.56
59063;BME280;44851;45.648;9.004;2022-08-01T11:35:10;98819.31;;;34.69;21.74
59063;BME280;44851;45.648;9.004;2022-08-01T11:37:35;98818.91;;;34.62;21.46
59063;BME280;44851;45.648;9.004;2022-08-01T11:40:20;98817.94;;;34.58;21.63
59063;BME280;44851;45.648;9.004;2022-08-01T11:42:51;98814.78;;;34.79;20.84
59063;BME280;44851;45.648;9.004;2022-08-01T11:45:49;98803.03;;;35.11;21.68
59063;BME280;44851;45.648;9.004;2022-08-01T11:48:20;98804.03;;;35.01;21.30
59063;BME280;44851;45.648;9.004;2022-08-01T11:50:46;98800.31;;;35.11;22.33
59063;BME280;44851;45.648;9.004;2022-08-01T11:53:11;98795.31;;;35.26;21.71
59063;BME280;44851;45.648;9.004;2022-08-01T11:55:53;98798.19;;;35.44;21.60
59063;BME280;44851;45.648;9.004;2022-08-01T11:58:26;98789.72;;;35.23;22.22
59063;BME280;44851;45.648;9.004;2022-08-01T12:00:55;98788.13;;;35.22;21.28
59063;BME280;44851;45.648;9.004;2022-08-01T12:03:30;98779.81;;;35.41;21.63
59063;BME280;44851;45.648;9.004;2022-08-01T12:05:57;98775.03;;;35.38;21.96
59063;BME280;44851;45.648;9.004;2022-08-01T12:08:26;98775.94;;;35.33;20.67
59063;BME280;44851;45.648;9.004;2022-08-01T12:10:52;98770.84;;;35.63;21.33
59063;BME280;44851;45.648;9.004;2022-08-01T12:13:18;98776.75;;;35.34;19.90
59063;BME280;44851;45.648;9.004;2022-08-01T12:15:45;98778.34;;;35.35;19.89
59063;BME280;44851;45.648;9.004;2022-08-01T12:18:10;98768.13;;;35.54;20.39
59063;BME280;44851;45.648;9.004;2022-08-01T12:20:39;98760.72;;;35.46;19.81
59063;BME280;44851;45.648;9.004;2022-08-01T12:23:09;98765.16;;;35.73;20.89
59063;BME280;44851;45.648;9.004;2022-08-01T12:25:36;98774.84;;;35.88;19.70
59063;BME280;44851;45.648;9.004;2022-08-01T12:28:05;98761.53;;;35.77;20.00
59063;BME280;44851;45.648;9.004;2022-08-01T12:30:32;98763.44;;;35.77;19.97
59063;BME280;44851;45.648;9.004;2022-08-01T12:33:09;98759.75;;;35.73;18.94
59063;BME280;44851;45.648;9.004;2022-08-01T12:35:36;98752.59;;;36.08;20.90
59063;BME280;44851;45.648;9.004;2022-08-01T12:38:04;98748.16;;;36.21;20.38
59063;BME280;44851;45.648;9.004;2022-08-01T12:40:32;98750.22;;;36.15;20.86
59063;BME280;44851;45.648;9.004;2022-08-01T12:43:00;98748.28;;;36.07;19.89
59063;BME280;44851;45.648;9.004;2022-08-01T12:45:34;98748.72;;;35.92;20.03
59063;BME280;44851;45.648;9.004;2022-08-01T12:48:00;98739.78;;;36.00;19.97
59063;BME280;44851;45.648;9.004;2022-08-01T12:50:28;98738.97;;;35.91;18.88
59063;BME280;44851;45.648;9.004;2022-08-01T12:52:55;98735.34;;;36.04;19.11
59063;BME280;44851;45.648;9.004;2022-08-01T12:55:23;98728.13;;;35.91;19.61
59063;BME280;44851;45.648;9.004;2022-08-01T12:58:06;98733.84;;;36.29;20.38
59063;BME280;44851;45.648;9.004;2022-08-01T13:00:32;98721.53;;;36.32;19.54
59063;BME280;44851;45.648;9.004;2022-08-01T13:03:23;98724.22;;;36.23;20.08
59063;BME280;44851;45.648;9.004;2022-08-01T13:05:56;98718.63;;;36.19;19.42
59063;BME280;44851;45.648;9.004;2022-08-01T13:08:31;98723.78;;;36.38;19.54
59063;BME280;44851;45.648;9.004;2022-08-01T13:11:02;98716.78;;;36.63;18.87
59063;BME280;44851;45.648;9.004;2022-08-01T13:13:45;98719.56;;;36.72;19.20
59063;BME280;44851;45.648;9.004;2022-08-01T13:16:18;98721.44;;;36.63;19.26
59063;BME280;44851;45.648;9.004;2022-08-01T13:18:49;98720.94;;;36.52;18.19
59063;BME280;44851;45.648;9.004;2022-08-01T13:21:30;98714.56;;;36.57;19.18
59063;BME280;44851;45.648;9.004;2022-08-01T13:24:07;98723.50;;;36.40;18.69
59063;BME280;44851;45.648;9.004;2022-08-01T13:26:43;98716.00;;;36.45;18.81
59063;BME280;44851;45.648;9.004;2022-08-01T13:29:10;98704.78;;;36.38;18.65
59063;BME280;44851;45.648;9.004;2022-08-01T13:31:37;98711.06;;;36.56;19.29
59063;BME280;44851;45.648;9.004;2022-08-01T13:34:03;98706.56;;;36.43;18.65